Time;durP1;ratioP1;P1;durP2;ratioP2;P2;SDS_P1;SDS_P2;PMS_P1;PMS_P2;Temp;Humidity;BMP_temperature;BMP_pressure;BME280_temperature;BME280_humidity;BME280_pressure;Samples;Min_cycle;Max_cycle;Signal;HPM_P1;HPM_P2
2022/08/05 00:02:23;;;;;;;3.90;3.60;;;30.60;37.30;;;;;;5071976;28;20454;-86
2022/08/05 00:04:50;;;;;;;4.33;3.60;;;30.70;37.30;;;;;;5052103;28;20675;-86
2022/08/05 00:07:17;;;;;;;6.37;3.83;;;30.60;37.20;;;;;;5072042;28;20507;-86
2022/08/05 00:09:45;;;;;;;3.50;3.20;;;30.70;37.80;;;;;;5068015;28;20447;-86
2022/08/05 00:12:12;;;;;;;7.50;3.20;;;30.60;38.10;;;;;;5060003;28;20452;-86
2022/08/05 00:14:40;;;;;;;3.77;3.50;;;30.60;38.00;;;;;;5037636;28;21077;-84
2022/08/05 00:17:07;;;;;;;3.53;3.23;;;30.50;38.20;;;;;;5041778;28;20767;-86
2022/08/05 00:19:35;;;;;;;4.10;3.63;;;30.50;38.60;;;;;;5060394;28;21504;-86
2022/08/05 00:22:02;;;;;;;3.73;3.30;;;30.40;38.50;;;;;;5070180;28;20451;-87
2022/08/05 00:24:29;;;;;;;3.80;3.43;;;30.40;38.70;;;;;;5051612;28;20448;-85
2022/08/05 00:26:56;;;;;;;3.63;3.33;;;30.40;38.60;;;;;;5074729;28;20475;-87
2022/08/05 00:29:23;;;;;;;4.00;3.70;;;30.40;38.50;;;;;;5037244;28;20439;-85
2022/08/05 00:31:51;;;;;;;3.07;2.87;;;30.40;38.50;;;;;;5091616;28;20439;-86
2022/08/05 00:34:18;;;;;;;3.63;3.40;;;30.30;38.50;;;;;;5089859;28;20443;-86
2022/08/05 00:36:45;;;;;;;3.40;3.20;;;30.30;38.30;;;;;;5053983;28;20475;-86
2022/08/05 00:39:13;;;;;;;3.40;3.20;;;30.30;38.60;;;;;;5089188;28;21030;-86
2022/08/05 00:41:39;;;;;;;8.67;3.73;;;30.20;38.80;;;;;;5070370;28;20453;-85
2022/08/05 00:44:06;;;;;;;3.87;3.60;;;30.20;38.80;;;;;;5065288;28;20548;-85
2022/08/05 00:46:33;;;;;;;3.80;3.50;;;30.20;39.40;;;;;;5065654;28;20463;-85
2022/08/05 00:49:02;;;;;;;4.53;3.70;;;30.20;40.10;;;;;;5073153;28;21203;-86
2022/08/05 00:51:29;;;;;;;3.90;3.47;;;30.10;41.00;;;;;;5050244;28;20992;-86
2022/08/05 00:53:56;;;;;;;3.63;3.40;;;30.00;41.30;;;;;;5091544;28;21149;-85
2022/08/05 00:56:23;;;;;;;4.20;3.20;;;29.60;42.80;;;;;;5088598;28;20902;-85
2022/08/05 00:58:50;;;;;;;6.77;3.57;;;29.40;44.50;;;;;;5069219;28;20945;-85
2022/08/05 01:01:17;;;;;;;4.17;3.77;;;29.40;44.50;;;;;;5091041;28;20450;-85
2022/08/05 01:03:44;;;;;;;4.23;3.93;;;29.00;44.20;;;;;;5073366;28;20456;-85
2022/08/05 01:06:13;;;;;;;3.93;3.53;;;28.50;43.70;;;;;;5072147;28;20497;-86
2022/08/05 01:08:39;;;;;;;6.83;3.90;;;28.60;43.80;;;;;;5089019;28;20532;-86
2022/08/05 01:14:34;;;;;;;4.07;3.50;;;28.70;42.70;;;;;;5090804;28;20477;-86
2022/08/05 01:17:06;;;;;;;3.80;3.50;;;28.90;42.00;;;;;;5073615;28;20961;-85
2022/08/05 01:19:39;;;;;;;4.30;4.00;;;29.00;40.70;;;;;;5081000;28;20536;-86
2022/08/05 01:22:20;;;;;;;4.23;3.90;;;29.10;40.30;;;;;;5058224;28;20493;-86
2022/08/05 01:24:59;;;;;;;5.40;4.30;;;29.20;39.90;;;;;;5081523;28;21110;-85
2022/08/05 01:27:59;;;;;;;4.00;3.70;;;29.20;39.70;;;;;;5048961;28;20520;-86
2022/08/05 01:30:31;;;;;;;4.27;3.57;;;29.30;39.60;;;;;;5048927;28;20462;-86
2022/08/05 01:33:00;;;;;;;4.13;3.73;;;29.30;39.90;;;;;;5083083;28;20453;-87
2022/08/05 01:35:31;;;;;;;4.33;4.00;;;29.30;39.60;;;;;;5090024;28;20448;-86
2022/08/05 01:38:01;;;;;;;4.53;3.60;;;29.40;38.90;;;;;;5091157;28;21324;-86
2022/08/05 01:40:30;;;;;;;3.90;3.60;;;29.50;39.40;;;;;;5056843;28;20472;-86
2022/08/05 01:43:02;;;;;;;4.03;3.73;;;29.50;38.90;;;;;;5089753;28;20439;-86
2022/08/05 01:45:30;;;;;;;4.50;3.97;;;29.60;39.30;;;;;;5073059;28;20444;-86
2022/08/05 01:48:00;;;;;;;3.87;3.50;;;29.50;39.00;;;;;;5056786;28;20467;-86
2022/08/05 01:50:30;;;;;;;3.33;3.00;;;29.50;40.10;;;;;;5092241;28;20432;-87
2022/08/05 01:53:01;;;;;;;3.80;3.50;;;29.20;41.20;;;;;;5093134;28;20443;-86
2022/08/05 01:55:30;;;;;;;5.43;4.27;;;29.30;41.60;;;;;;5090377;28;20458;-86
2022/08/05 01:58:00;;;;;;;4.33;3.57;;;29.40;41.70;;;;;;5095106;28;20534;-87
2022/08/05 02:00:29;;;;;;;3.60;3.40;;;29.40;42.20;;;;;;5075808;28;20550;-87
2022/08/05 02:03:00;;;;;;;4.33;3.63;;;29.10;43.90;;;;;;5082448;28;20443;-87
2022/08/05 02:05:32;;;;;;;12.70;3.67;;;29.00;44.60;;;;;;5060296;28;20451;-87
2022/08/05 02:07:59;;;;;;;5.47;3.70;;;29.00;44.40;;;;;;5075400;28;21266;-87
2022/08/05 02:10:28;;;;;;;4.80;3.70;;;29.00;44.60;;;;;;5065132;28;20450;-87
2022/08/05 02:13:01;;;;;;;3.70;3.30;;;29.10;44.40;;;;;;5071981;28;20451;-86
2022/08/05 02:15:34;;;;;;;5.30;3.70;;;29.40;43.60;;;;;;5075989;28;20450;-88
2022/08/05 02:18:05;;;;;;;7.73;3.00;;;29.40;44.00;;;;;;5089598;28;20993;-87
2022/08/05 02:20:39;;;;;;;4.00;3.40;;;29.40;44.10;;;;;;5062836;28;20475;-86
2022/08/05 02:23:10;;;;;;;8.70;3.80;;;29.50;44.00;;;;;;5082260;28;20443;-87
2022/08/05 02:25:41;;;;;;;4.23;3.93;;;29.70;43.40;;;;;;5061509;28;20491;-87
2022/08/05 02:28:12;;;;;;;9.37;2.90;;;29.70;43.30;;;;;;5074094;28;20454;-88
2022/08/05 02:30:44;;;;;;;3.70;3.13;;;29.70;43.70;;;;;;5076612;28;20781;-84
2022/08/05 02:33:14;;;;;;;8.03;3.60;;;29.70;43.50;;;;;;5049096;28;20443;-86
2022/08/05 02:35:43;;;;;;;5.43;3.37;;;29.70;43.40;;;;;;5041728;28;20448;-87
2022/08/05 02:38:12;;;;;;;7.00;3.27;;;29.60;44.00;;;;;;5076147;28;20452;-87
2022/08/05 02:40:42;;;;;;;5.03;3.50;;;29.70;43.80;;;;;;5070118;28;21248;-84
2022/08/05 02:43:11;;;;;;;6.70;3.57;;;29.80;43.70;;;;;;5063390;28;20447;-84
2022/08/05 02:45:40;;;;;;;4.20;3.80;;;29.80;43.30;;;;;;5045681;28;20446;-87
2022/08/05 02:48:09;;;;;;;4.57;3.20;;;30.00;43.20;;;;;;5053504;28;20451;-87
2022/08/05 02:50:38;;;;;;;3.33;3.07;;;30.00;42.90;;;;;;5055498;28;20435;-86
2022/08/05 02:53:05;;;;;;;8.30;3.80;;;30.00;42.80;;;;;;5071446;28;20474;-86
2022/08/05 02:55:33;;;;;;;4.37;3.97;;;30.00;42.60;;;;;;5055482;28;20447;-86
2022/08/05 02:58:01;;;;;;;7.13;3.70;;;30.00;43.10;;;;;;5053029;28;20447;-87
2022/08/05 03:00:30;;;;;;;7.20;3.47;;;29.90;43.00;;;;;;5063858;28;22924;-86
2022/08/05 03:02:57;;;;;;;4.40;3.10;;;29.80;43.40;;;;;;5047316;28;20984;-86
2022/08/05 03:05:25;;;;;;;6.20;4.00;;;29.70;43.40;;;;;;5054300;28;20451;-87
2022/08/05 03:07:53;;;;;;;5.33;3.77;;;29.60;43.80;;;;;;5054587;28;21017;-86
2022/08/05 03:10:21;;;;;;;5.00;3.90;;;29.70;43.50;;;;;;5068878;28;20454;-85
2022/08/05 03:12:48;;;;;;;4.60;3.33;;;29.60;43.60;;;;;;5067561;28;20872;-85
2022/08/05 03:15:15;;;;;;;5.20;3.80;;;29.80;42.90;;;;;;5091848;28;20504;-87
2022/08/05 03:17:43;;;;;;;5.10;4.13;;;30.00;42.70;;;;;;5051555;28;20491;-86
2022/08/05 03:20:11;;;;;;;3.80;3.47;;;30.10;42.00;;;;;;5089215;28;20474;-86
2022/08/05 03:22:38;;;;;;;5.90;4.03;;;30.30;42.00;;;;;;5080791;28;20466;-87
2022/08/05 03:25:06;;;;;;;3.80;3.50;;;30.40;42.10;;;;;;5089565;28;20538;-86
2022/08/05 03:27:33;;;;;;;5.83;3.40;;;30.40;41.80;;;;;;5089679;28;20503;-86
2022/08/05 03:30:00;;;;;;;5.97;4.17;;;30.40;42.00;;;;;;5073627;28;20941;-86
2022/08/05 03:32:28;;;;;;;4.73;3.20;;;30.40;41.70;;;;;;5073587;28;20455;-85
2022/08/05 03:34:56;;;;;;;3.70;3.20;;;30.40;41.00;;;;;;5070624;28;20683;-86
2022/08/05 03:37:24;;;;;;;7.70;4.23;;;30.40;41.70;;;;;;5088944;28;20463;-86
2022/08/05 03:40:00;;;;;;;3.40;3.10;;;30.40;41.80;;;;;;5085982;28;20464;-86
2022/08/05 03:42:27;;;;;;;8.30;3.23;;;30.40;42.20;;;;;;5061988;28;20451;-85
2022/08/05 03:44:54;;;;;;;3.77;3.43;;;30.40;42.20;;;;;;5073019;28;20450;-85
2022/08/05 03:47:21;;;;;;;6.80;3.70;;;30.40;42.40;;;;;;5070333;28;20463;-86
2022/08/05 03:49:48;;;;;;;5.80;4.10;;;30.40;42.30;;;;;;5069687;28;20438;-86
2022/08/05 03:52:22;;;;;;;4.13;3.73;;;30.40;42.50;;;;;;5054365;28;20545;-86
2022/08/05 03:54:52;;;;;;;4.33;3.90;;;30.40;42.60;;;;;;5031519;28;20902;-87
2022/08/05 03:57:24;;;;;;;5.13;3.70;;;30.40;42.60;;;;;;5071836;28;20486;-87
2022/08/05 03:59:56;;;;;;;3.30;3.10;;;30.40;42.60;;;;;;5088609;28;21419;-86
2022/08/05 04:02:25;;;;;;;4.13;3.60;;;30.40;42.60;;;;;;5087235;28;20442;-85
2022/08/05 04:04:53;;;;;;;4.70;3.53;;;30.40;42.90;;;;;;5067804;28;20492;-86
2022/08/05 04:07:23;;;;;;;3.60;3.30;;;30.40;43.00;;;;;;5087359;28;20467;-86
2022/08/05 04:09:50;;;;;;;3.80;3.50;;;30.40;42.70;;;;;;5069732;28;21013;-86
2022/08/05 04:12:17;;;;;;;4.30;3.23;;;30.40;43.10;;;;;;5070942;28;20959;-86
2022/08/05 04:14:44;;;;;;;4.37;3.80;;;30.40;43.10;;;;;;5062504;28;20548;-86
2022/08/05 04:17:11;;;;;;;11.33;4.27;;;30.30;44.00;;;;;;5086982;28;20486;-86
2022/08/05 04:19:42;;;;;;;5.10;3.80;;;30.30;43.30;;;;;;5088578;28;20526;-86
2022/08/05 04:22:09;;;;;;;3.77;3.40;;;30.20;44.30;;;;;;5080025;28;20528;-84
2022/08/05 04:24:37;;;;;;;6.73;4.07;;;30.10;44.50;;;;;;5056320;28;20550;-87
2022/08/05 04:27:04;;;;;;;4.53;4.13;;;30.10;44.80;;;;;;5070312;28;21057;-87
2022/08/05 04:29:31;;;;;;;6.00;5.40;;;30.00;44.90;;;;;;5055165;28;20482;-87
2022/08/05 04:31:58;;;;;;;8.63;4.47;;;29.70;45.30;;;;;;5087737;28;20455;-86
2022/08/05 04:34:25;;;;;;;7.17;3.90;;;29.70;44.10;;;;;;5069834;28;21042;-87
2022/08/05 04:36:52;;;;;;;6.70;4.00;;;29.70;44.70;;;;;;5089366;28;20467;-86
2022/08/05 04:39:19;;;;;;;5.60;3.60;;;29.70;44.80;;;;;;5060551;28;20990;-87
2022/08/05 04:41:49;;;;;;;5.60;3.53;;;29.80;45.00;;;;;;5087161;28;20858;-87
2022/08/05 04:44:16;;;;;;;4.87;3.53;;;29.90;45.00;;;;;;5069859;28;20440;-87
2022/08/05 04:46:43;;;;;;;4.17;3.60;;;30.00;44.70;;;;;;5064952;28;20468;-87
2022/08/05 04:49:10;;;;;;;4.13;2.90;;;29.90;44.40;;;;;;5078355;28;20455;-86
2022/08/05 04:51:36;;;;;;;7.53;3.37;;;29.90;44.60;;;;;;5087267;28;20455;-86
2022/08/05 04:54:04;;;;;;;4.03;3.33;;;30.00;45.00;;;;;;5086554;28;20447;-87
2022/08/05 04:56:31;;;;;;;9.33;4.30;;;30.00;45.60;;;;;;5044074;28;20768;-87
2022/08/05 04:58:59;;;;;;;4.43;3.63;;;30.00;45.90;;;;;;5070718;28;20985;-87
2022/08/05 05:01:26;;;;;;;4.10;3.70;;;30.00;45.70;;;;;;5049496;28;20667;-88
2022/08/05 05:03:53;;;;;;;4.37;2.90;;;29.80;46.30;;;;;;5047736;28;20456;-89
2022/08/05 05:06:20;;;;;;;3.60;3.40;;;29.10;45.20;;;;;;5037594;28;21006;-88
2022/08/05 05:17:57;;;;;;;3.27;2.97;;;29.10;45.80;;;;;;5064767;28;20493;-90
2022/08/05 05:20:24;;;;;;;2.90;2.70;;;29.00;45.00;;;;;;5057766;28;20473;-89
2022/08/05 05:22:52;;;;;;;3.87;3.57;;;29.10;44.60;;;;;;5048251;28;20781;-90
2022/08/05 05:25:19;;;;;;;3.13;2.80;;;29.10;44.80;;;;;;5079735;28;20450;-89
2022/08/05 05:27:46;;;;;;;3.20;2.90;;;29.20;44.50;;;;;;5046794;28;20825;-88
2022/08/05 05:33:32;;;;;;;2.93;2.73;;;29.40;44.40;;;;;;5070594;28;20476;-89
2022/08/05 05:36:00;;;;;;;3.83;2.83;;;29.40;44.60;;;;;;5053622;28;20475;-89
2022/08/05 05:38:28;;;;;;;5.30;2.63;;;29.30;44.90;;;;;;5063481;28;21081;-89
2022/08/05 05:40:55;;;;;;;5.63;3.30;;;29.30;45.10;;;;;;5071352;28;20478;-88
2022/08/05 05:43:22;;;;;;;3.37;3.07;;;29.20;45.30;;;;;;5070776;28;20458;-88
2022/08/05 05:45:50;;;;;;;4.03;3.17;;;29.30;45.20;;;;;;5068207;28;20455;-88
2022/08/05 05:48:17;;;;;;;4.77;3.63;;;29.40;45.20;;;;;;5066219;28;20455;-89
2022/08/05 05:50:45;;;;;;;5.97;3.03;;;29.50;45.00;;;;;;5076931;28;20455;-87
2022/08/05 05:53:14;;;;;;;5.80;2.90;;;29.40;44.90;;;;;;5052210;28;20459;-88
2022/08/05 05:55:41;;;;;;;6.10;3.50;;;29.30;45.10;;;;;;5059820;28;20458;-87
2022/08/05 05:58:08;;;;;;;4.50;3.50;;;29.40;45.50;;;;;;5054536;28;20454;-90
2022/08/05 06:00:35;;;;;;;6.20;3.47;;;29.50;45.30;;;;;;5052100;28;21413;-89
2022/08/05 06:03:02;;;;;;;5.53;3.00;;;29.60;45.50;;;;;;5053167;28;20508;-89
2022/08/05 06:05:29;;;;;;;6.47;3.20;;;29.50;46.10;;;;;;5045439;28;21201;-88
2022/08/05 06:07:58;;;;;;;3.33;2.93;;;29.50;46.30;;;;;;5061153;28;20510;-90
2022/08/05 06:10:25;;;;;;;3.70;3.33;;;29.50;46.30;;;;;;5077405;28;20452;-89
2022/08/05 06:12:52;;;;;;;3.53;3.20;;;29.40;46.90;;;;;;5094119;28;20451;-86
2022/08/05 06:15:19;;;;;;;7.13;3.13;;;29.40;46.90;;;;;;5097079;28;20455;-86
2022/08/05 06:17:46;;;;;;;2.93;2.70;;;29.20;47.20;;;;;;5076696;28;20489;-84
2022/08/05 06:20:13;;;;;;;3.97;3.57;;;29.30;47.40;;;;;;5061210;28;20490;-86
2022/08/05 06:22:40;;;;;;;3.83;3.53;;;29.40;47.30;;;;;;5078650;28;20452;-86
2022/08/05 06:25:12;;;;;;;3.93;3.10;;;29.40;47.30;;;;;;5074985;28;20509;-86
2022/08/05 06:27:39;;;;;;;3.10;2.90;;;29.40;47.00;;;;;;5077544;28;20487;-85
2022/08/05 06:30:07;;;;;;;4.27;3.73;;;29.40;46.90;;;;;;5078350;28;20445;-86
2022/08/05 06:32:34;;;;;;;3.70;3.23;;;29.40;47.10;;;;;;5076302;28;20447;-86
2022/08/05 06:35:01;;;;;;;3.53;3.23;;;29.50;46.80;;;;;;5093565;28;20443;-86
2022/08/05 06:37:28;;;;;;;3.63;3.33;;;29.60;46.90;;;;;;5088613;28;20471;-87
2022/08/05 06:39:55;;;;;;;3.73;3.43;;;29.70;47.20;;;;;;5068852;28;20462;-87
2022/08/05 06:42:24;;;;;;;4.10;3.67;;;29.50;47.10;;;;;;5077001;28;20474;-87
2022/08/05 06:44:50;;;;;;;3.63;3.10;;;29.60;47.10;;;;;;5052418;28;20447;-88
2022/08/05 06:47:17;;;;;;;3.60;3.30;;;29.80;47.10;;;;;;5073956;28;20466;-87
2022/08/05 06:49:44;;;;;;;6.33;3.33;;;30.00;46.50;;;;;;5050360;28;20965;-88
2022/08/05 06:52:37;;;;;;;4.27;3.83;;;30.20;46.00;;;;;;5088274;28;20447;-87
2022/08/05 06:55:05;;;;;;;5.53;3.90;;;30.30;46.00;;;;;;5050342;28;20481;-87
2022/08/05 06:57:33;;;;;;;7.33;3.40;;;30.20;46.10;;;;;;5070448;28;20459;-87
2022/08/05 07:00:02;;;;;;;4.03;3.70;;;30.20;46.10;;;;;;5052807;28;20482;-86
2022/08/05 07:02:44;;;;;;;4.10;3.63;;;30.30;46.00;;;;;;5071687;28;20516;-88
2022/08/05 07:05:11;;;;;;;5.30;3.70;;;30.40;46.00;;;;;;5087574;28;20447;-89
2022/08/05 07:07:39;;;;;;;4.33;3.93;;;30.50;45.90;;;;;;5086611;28;20926;-89
2022/08/05 07:10:31;;;;;;;7.93;3.97;;;30.40;45.60;;;;;;5068249;28;20479;-88
2022/08/05 07:18:28;;;;;;;3.90;3.30;;;30.60;46.00;;;;;;5087511;28;20463;-88
2022/08/05 07:20:56;;;;;;;3.90;3.53;;;30.70;45.90;;;;;;5085175;28;20476;-86
2022/08/05 07:23:24;;;;;;;4.70;3.60;;;30.80;45.30;;;;;;5068177;28;20484;-87
2022/08/05 07:25:51;;;;;;;3.50;3.20;;;30.80;45.40;;;;;;5084818;28;20451;-87
2022/08/05 07:28:20;;;;;;;4.33;3.93;;;30.60;45.70;;;;;;5085052;28;20459;-88
2022/08/05 07:30:47;;;;;;;7.37;3.87;;;30.60;45.80;;;;;;5070971;28;20966;-87
2022/08/05 07:33:14;;;;;;;4.17;3.77;;;30.80;45.20;;;;;;5080108;28;20451;-86
2022/08/05 07:35:41;;;;;;;4.13;3.83;;;30.90;44.90;;;;;;5049109;28;20454;-86
2022/08/05 07:38:38;;;;;;;4.43;4.03;;;30.90;45.10;;;;;;5069879;28;20448;-89
2022/08/05 07:41:10;;;;;;;4.67;3.63;;;31.10;44.10;;;;;;5084924;28;21195;-89
2022/08/05 07:43:38;;;;;;;3.73;3.43;;;31.20;44.20;;;;;;5053684;28;20509;-89
2022/08/05 07:46:31;;;;;;;3.87;3.57;;;31.00;44.50;;;;;;5087497;28;20471;-89
2022/08/05 07:48:59;;;;;;;3.67;3.37;;;30.90;44.70;;;;;;5086806;28;20451;-87
2022/08/05 07:51:26;;;;;;;5.30;3.53;;;30.80;45.50;;;;;;5077813;28;20443;-88
2022/08/05 07:53:53;;;;;;;3.97;3.50;;;31.10;44.40;;;;;;5061460;28;20466;-87
2022/08/05 07:56:20;;;;;;;4.07;3.70;;;31.20;42.80;;;;;;5062852;28;20476;-88
2022/08/05 07:58:48;;;;;;;3.70;3.40;;;31.10;43.40;;;;;;5076563;28;20477;-89
2022/08/05 08:01:15;;;;;;;3.90;3.60;;;31.10;43.40;;;;;;5042698;28;21074;-88
2022/08/05 08:03:42;;;;;;;4.40;3.50;;;31.20;43.90;;;;;;5067034;28;21140;-86
2022/08/05 08:09:00;;;;;;;4.00;3.43;;;31.40;43.40;;;;;;5055002;28;20750;-88
2022/08/05 08:11:28;;;;;;;3.40;3.10;;;31.60;42.60;;;;;;5063306;28;20443;-87
2022/08/05 08:13:56;;;;;;;5.50;3.37;;;31.80;41.90;;;;;;5055911;28;20449;-87
2022/08/05 08:16:23;;;;;;;3.27;2.97;;;31.90;41.40;;;;;;5050118;28;20475;-88
2022/08/05 08:18:50;;;;;;;3.23;2.73;;;31.90;40.40;;;;;;5069420;28;20932;-86
2022/08/05 08:21:17;;;;;;;5.53;3.20;;;31.80;40.60;;;;;;5056806;28;20471;-87
2022/08/05 08:23:44;;;;;;;3.60;3.30;;;31.90;40.70;;;;;;5068160;28;20456;-87
2022/08/05 08:26:13;;;;;;;7.10;3.03;;;32.00;40.60;;;;;;5035611;28;20482;-86
2022/08/05 08:28:40;;;;;;;3.37;2.90;;;32.20;40.30;;;;;;5084953;28;21362;-88
2022/08/05 08:31:08;;;;;;;3.23;3.03;;;32.30;40.20;;;;;;5048348;28;20536;-88
2022/08/05 08:33:35;;;;;;;3.07;2.83;;;32.30;39.80;;;;;;5076350;28;20468;-88
2022/08/05 08:36:02;;;;;;;4.53;3.03;;;32.30;38.90;;;;;;5070637;28;20535;-87
2022/08/05 08:38:29;;;;;;;3.57;3.00;;;32.40;39.30;;;;;;5070047;28;20491;-87
2022/08/05 08:40:58;;;;;;;3.03;2.73;;;32.50;39.20;;;;;;5042740;28;20475;-86
2022/08/05 08:43:25;;;;;;;2.93;2.73;;;32.50;38.30;;;;;;5069157;28;20475;-86
2022/08/05 08:45:55;;;;;;;3.30;2.90;;;32.40;37.60;;;;;;5069172;28;20450;-88
2022/08/05 08:48:25;;;;;;;3.20;2.90;;;32.40;38.00;;;;;;5055561;28;20439;-87
2022/08/05 08:50:52;;;;;;;3.00;2.70;;;32.10;38.30;;;;;;5070196;28;20956;-88
2022/08/05 08:53:20;;;;;;;10.10;3.10;;;32.10;38.40;;;;;;5072245;28;20447;-86
2022/08/05 08:55:47;;;;;;;3.47;3.10;;;32.30;38.90;;;;;;5047570;28;20447;-89
2022/08/05 08:58:15;;;;;;;2.83;2.63;;;32.60;38.20;;;;;;5073521;28;21001;-86
2022/08/05 09:00:42;;;;;;;3.30;2.73;;;32.90;37.90;;;;;;5073438;28;20454;-85
2022/08/05 09:03:10;;;;;;;3.10;2.90;;;33.00;36.70;;;;;;5092922;28;20493;-88
2022/08/05 09:05:38;;;;;;;2.90;2.67;;;33.00;36.50;;;;;;5072749;28;20958;-88
2022/08/05 09:08:06;;;;;;;4.00;2.87;;;33.10;36.50;;;;;;5090849;28;20455;-88
2022/08/05 09:10:33;;;;;;;3.13;2.80;;;33.10;36.20;;;;;;5074283;28;21010;-86
2022/08/05 09:13:00;;;;;;;3.67;2.90;;;33.30;35.90;;;;;;5089763;28;20447;-86
2022/08/05 09:15:27;;;;;;;2.80;2.60;;;33.60;36.50;;;;;;5064017;28;20456;-87
2022/08/05 09:17:54;;;;;;;4.40;2.73;;;33.90;35.10;;;;;;5075841;28;20470;-88
2022/08/05 09:20:21;;;;;;;3.33;3.00;;;33.90;35.60;;;;;;5058081;28;20454;-87
2022/08/05 09:23:10;;;;;;;3.50;3.20;;;34.00;36.00;;;;;;5090320;28;20833;-86
2022/08/05 09:25:39;;;;;;;2.60;2.40;;;34.10;35.40;;;;;;5080929;28;20462;-89
2022/08/05 09:28:13;;;;;;;3.10;2.80;;;34.20;35.40;;;;;;5073292;28;20942;-87
2022/08/05 09:30:51;;;;;;;3.90;2.60;;;34.40;35.20;;;;;;5063591;28;20447;-88
2022/08/05 09:33:18;;;;;;;3.63;2.53;;;34.40;33.90;;;;;;5093157;28;20435;-87
2022/08/05 09:35:55;;;;;;;3.03;2.83;;;34.30;33.60;;;;;;5086032;28;20935;-89
2022/08/05 09:42:40;;;;;;;2.50;2.30;;;34.10;34.00;;;;;;5088937;28;21010;-88
2022/08/05 09:45:09;;;;;;;2.93;2.60;;;34.20;32.80;;;;;;5070456;28;20451;-88
2022/08/05 09:47:41;;;;;;;3.00;2.70;;;34.20;33.10;;;;;;5055884;28;20477;-90
2022/08/05 09:58:23;;;;;;;2.57;2.37;;;33.70;32.50;;;;;;5091816;28;20632;-87
2022/08/05 10:00:57;;;;;;;3.47;2.57;;;33.00;34.20;;;;;;5069164;28;20558;-85
2022/08/05 10:03:24;;;;;;;4.03;2.50;;;33.10;33.60;;;;;;5070015;28;20462;-88
2022/08/05 10:06:07;;;;;;;2.73;2.53;;;33.20;33.60;;;;;;5087184;28;20443;-90
2022/08/05 10:08:35;;;;;;;3.77;2.10;;;33.40;33.20;;;;;;5071280;28;20674;-90
2022/08/05 10:11:05;;;;;;;3.07;2.50;;;33.50;32.10;;;;;;5083989;28;20952;-87
2022/08/05 10:13:35;;;;;;;2.47;2.27;;;33.40;31.80;;;;;;5054955;28;20514;-87
2022/08/05 10:16:04;;;;;;;2.23;2.03;;;33.60;32.20;;;;;;5076765;28;20475;-86
2022/08/05 10:18:32;;;;;;;2.40;2.00;;;33.40;32.00;;;;;;5077230;28;20454;-89
2022/08/05 10:21:02;;;;;;;2.57;2.33;;;33.40;32.70;;;;;;5069444;28;21151;-88
2022/08/05 10:23:31;;;;;;;2.70;2.50;;;33.50;33.00;;;;;;5086866;28;20539;-87
2022/08/05 10:26:00;;;;;;;2.60;2.40;;;33.60;32.50;;;;;;5035555;28;20485;-87
2022/08/05 10:28:29;;;;;;;2.30;2.10;;;33.40;32.20;;;;;;5087227;28;20451;-89
2022/08/05 10:30:58;;;;;;;2.63;2.43;;;33.50;32.30;;;;;;5069374;28;20451;-89
2022/08/05 10:33:27;;;;;;;2.30;2.20;;;33.80;32.90;;;;;;5067999;28;20451;-88
2022/08/05 10:35:55;;;;;;;3.00;2.53;;;34.20;31.60;;;;;;5087049;28;20529;-88
2022/08/05 10:38:24;;;;;;;2.20;2.10;;;34.60;31.20;;;;;;5070605;28;20962;-89
2022/08/05 10:41:00;;;;;;;3.90;2.20;;;35.00;30.60;;;;;;5085184;28;21006;-87
2022/08/05 10:43:40;;;;;;;2.83;2.30;;;35.50;29.80;;;;;;5070675;28;20454;-87
2022/08/05 10:46:11;;;;;;;2.40;2.20;;;35.70;30.10;;;;;;5086253;28;20567;-86
2022/08/05 10:48:39;;;;;;;3.97;2.27;;;35.80;29.50;;;;;;5086127;28;20462;-86
2022/08/05 10:51:09;;;;;;;4.33;2.50;;;35.80;29.80;;;;;;5074234;28;20448;-87
2022/08/05 10:53:42;;;;;;;3.40;2.53;;;35.60;31.00;;;;;;5057248;28;20463;-87
2022/08/05 10:56:11;;;;;;;2.27;2.17;;;35.50;30.40;;;;;;5087990;28;21292;-88
2022/08/05 11:03:13;;;;;;;2.80;2.57;;;35.30;30.40;;;;;;5081291;28;20539;-90
2022/08/05 11:05:40;;;;;;;1.73;1.57;;;35.10;30.80;;;;;;5091640;28;20455;-87
2022/08/05 11:08:09;;;;;;;2.37;1.97;;;35.00;29.70;;;;;;5073669;28;20454;-90
2022/08/05 11:10:40;;;;;;;2.20;2.00;;;34.40;29.20;;;;;;5080245;28;20450;-87
2022/08/05 11:13:08;;;;;;;2.33;2.10;;;34.10;30.30;;;;;;5074535;28;20443;-87
2022/08/05 11:15:39;;;;;;;2.37;2.17;;;33.90;30.70;;;;;;5088810;28;20443;-87
2022/08/05 11:18:08;;;;;;;2.30;1.60;;;34.10;31.00;;;;;;5090574;28;20467;-89
2022/08/05 11:20:43;;;;;;;1.67;1.57;;;33.80;29.80;;;;;;5085287;28;20459;-85
2022/08/05 11:23:33;;;;;;;1.73;1.63;;;34.00;29.60;;;;;;5087656;28;20819;-89
2022/08/05 11:26:07;;;;;;;2.27;2.07;;;33.90;29.70;;;;;;5086609;28;20468;-87
2022/08/05 11:28:41;;;;;;;1.93;1.73;;;34.20;29.80;;;;;;5086821;28;20454;-88
2022/08/05 11:31:29;;;;;;;2.53;1.90;;;34.60;30.00;;;;;;5087647;28;20447;-88
2022/08/05 11:34:05;;;;;;;2.30;1.90;;;34.50;29.50;;;;;;5086701;28;21056;-87
2022/08/05 11:36:51;;;;;;;2.00;1.77;;;34.90;29.50;;;;;;5084301;28;20970;-86
2022/08/05 11:43:55;;;;;;;1.90;1.70;;;34.80;28.70;;;;;;5071127;28;20457;-86
2022/08/05 11:46:26;;;;;;;3.17;1.83;;;34.50;28.90;;;;;;5075002;28;20487;-88
2022/08/05 11:53:05;;;;;;;1.97;1.87;;;34.40;29.60;;;;;;5085128;28;20534;-87
2022/08/05 11:55:32;;;;;;;1.90;1.80;;;34.40;29.30;;;;;;5086378;28;20870;-88
2022/08/05 11:57:59;;;;;;;2.20;2.00;;;34.60;29.50;;;;;;5086871;28;20483;-87
2022/08/05 12:00:27;;;;;;;2.63;1.90;;;34.30;29.70;;;;;;5069853;28;20963;-88
2022/08/05 12:02:54;;;;;;;3.43;2.20;;;34.30;30.00;;;;;;5088144;28;20830;-88
2022/08/05 12:05:26;;;;;;;2.23;2.13;;;34.00;30.60;;;;;;5069181;28;20512;-86
2022/08/05 12:07:56;;;;;;;2.00;1.90;;;34.00;30.70;;;;;;5089903;28;21027;-86
2022/08/05 12:10:27;;;;;;;3.73;1.90;;;34.20;30.40;;;;;;5067526;28;20818;-88
2022/08/05 12:12:54;;;;;;;2.40;2.20;;;34.20;30.60;;;;;;5060573;28;20439;-89
2022/08/05 12:15:21;;;;;;;5.07;2.07;;;34.20;30.60;;;;;;5049248;28;21045;-88
2022/08/05 12:17:48;;;;;;;3.53;2.10;;;34.00;30.80;;;;;;5068001;28;20475;-85
2022/08/05 12:26:51;;;;;;;2.40;2.20;;;33.90;31.70;;;;;;5094154;28;20837;-86
2022/08/05 12:29:20;;;;;;;2.10;1.90;;;34.40;31.40;;;;;;5078260;28;20953;-88
2022/08/05 12:31:49;;;;;;;2.20;2.10;;;34.40;31.10;;;;;;5097925;28;20450;-86
2022/08/05 12:34:18;;;;;;;2.50;2.30;;;34.50;31.80;;;;;;5060248;28;21235;-88
2022/08/05 12:36:46;;;;;;;2.80;2.60;;;34.80;31.30;;;;;;5063073;28;20559;-86
2022/08/05 12:39:14;;;;;;;5.50;2.60;;;34.70;30.70;;;;;;5092829;28;20558;-86
2022/08/05 12:41:41;;;;;;;3.50;2.23;;;35.10;31.60;;;;;;5086339;28;20460;-87
2022/08/05 12:44:12;;;;;;;2.60;2.37;;;35.20;30.50;;;;;;5069376;28;20470;-86
2022/08/05 12:47:30;;;;;;;4.63;2.60;;;35.10;30.40;;;;;;5076571;28;20473;-87
2022/08/05 12:51:07;;;;;;;2.70;2.50;;;35.40;31.10;;;;;;5078174;28;21221;-89
2022/08/05 12:53:40;;;;;;;2.70;2.50;;;35.50;30.50;;;;;;5094046;28;20458;-86
2022/08/05 12:59:44;;;;;;;2.63;2.43;;;35.50;30.80;;;;;;5094463;28;20451;-87
2022/08/05 13:02:12;;;;;;;3.77;2.97;;;35.60;30.50;;;;;;5062318;28;20995;-85
2022/08/05 13:04:41;;;;;;;3.27;3.07;;;35.80;31.00;;;;;;5095485;28;20443;-87
2022/08/05 13:07:11;;;;;;;3.30;2.60;;;35.70;30.40;;;;;;5078638;28;20848;-87
2022/08/05 13:09:39;;;;;;;5.10;2.83;;;35.90;30.80;;;;;;5082408;28;20961;-87
2022/08/05 13:12:09;;;;;;;3.60;3.13;;;35.70;31.00;;;;;;5091396;28;20450;-87
2022/08/05 13:14:40;;;;;;;3.27;2.60;;;35.30;31.10;;;;;;5058237;28;20452;-87
2022/08/05 13:17:09;;;;;;;2.80;2.60;;;35.40;31.40;;;;;;5077354;28;20474;-86
2022/08/05 13:19:38;;;;;;;3.03;2.57;;;35.50;30.80;;;;;;5049319;28;20453;-87
2022/08/05 13:22:05;;;;;;;2.47;2.10;;;35.60;30.90;;;;;;5060529;28;21177;-87
2022/08/05 13:24:32;;;;;;;3.87;2.53;;;35.40;31.10;;;;;;5073428;28;20455;-88
2022/08/05 13:26:59;;;;;;;2.30;2.20;;;35.20;30.70;;;;;;5094207;28;20533;-85
2022/08/05 13:29:27;;;;;;;2.30;2.13;;;34.50;30.50;;;;;;5059236;28;20446;-87
2022/08/05 13:31:57;;;;;;;3.23;2.37;;;34.20;31.10;;;;;;5076839;28;20454;-86
2022/08/05 13:34:24;;;;;;;4.53;3.10;;;34.10;31.90;;;;;;5050134;28;20526;-86
2022/08/05 13:36:51;;;;;;;2.60;2.40;;;34.20;32.80;;;;;;5074571;28;20471;-88
2022/08/05 13:39:18;;;;;;;2.80;2.20;;;34.00;31.70;;;;;;5070379;28;20542;-86
2022/08/05 13:41:45;;;;;;;3.40;3.10;;;33.90;32.30;;;;;;5071419;28;20886;-87
2022/08/05 13:44:12;;;;;;;2.83;2.43;;;33.90;32.00;;;;;;5055343;28;20979;-87
2022/08/05 13:46:39;;;;;;;3.07;2.30;;;33.80;31.80;;;;;;5070913;28;20466;-87
2022/08/05 13:49:07;;;;;;;2.73;2.53;;;33.60;32.50;;;;;;5054458;28;21041;-87
2022/08/05 13:51:34;;;;;;;2.90;2.10;;;33.50;33.10;;;;;;5071469;28;21292;-87
2022/08/05 13:54:01;;;;;;;2.80;2.50;;;33.30;33.10;;;;;;5070486;28;20439;-87
2022/08/05 13:56:28;;;;;;;3.30;2.47;;;33.00;33.50;;;;;;5092024;28;20476;-86
2022/08/05 14:03:03;;;;;;;2.80;2.60;;;33.20;33.70;;;;;;5090322;28;20791;-86